sensor_id;sensor_type;location;lat;lon;timestamp;pressure;altitude;pressure_sealevel;temperature;humidity
41573;BME280;27286;47.870;19.006;2022-10-16T00:01:23;99735.81;;;13.87;78.86
41573;BME280;27286;47.870;19.006;2022-10-16T00:03:50;99744.59;;;13.85;78.97
41573;BME280;27286;47.870;19.006;2022-10-16T00:06:17;99729.03;;;13.82;79.01
41573;BME280;27286;47.870;19.006;2022-10-16T00:08:43;99735.97;;;13.83;78.97
41573;BME280;27286;47.870;19.006;2022-10-16T00:11:24;99746.28;;;13.87;78.90
41573;BME280;27286;47.870;19.006;2022-10-16T00:13:52;99745.50;;;13.84;78.70
41573;BME280;27286;47.870;19.006;2022-10-16T00:16:20;99745.50;;;13.84;78.53
41573;BME280;27286;47.870;19.006;2022-10-16T00:18:46;99739.59;;;13.81;77.05
41573;BME280;27286;47.870;19.006;2022-10-16T00:21:16;99754.75;;;13.92;76.76
41573;BME280;27286;47.870;19.006;2022-10-16T00:23:42;99750.66;;;13.86;77.00
41573;BME280;27286;47.870;19.006;2022-10-16T00:26:11;99750.50;;;13.89;77.48
41573;BME280;27286;47.870;19.006;2022-10-16T00:28:37;99754.13;;;13.87;77.80
41573;BME280;27286;47.870;19.006;2022-10-16T00:31:08;99760.13;;;13.89;77.97
41573;BME280;27286;47.870;19.006;2022-10-16T00:33:34;99755.06;;;13.85;77.93
41573;BME280;27286;47.870;19.006;2022-10-16T00:36:02;99753.28;;;13.86;77.90
41573;BME280;27286;47.870;19.006;2022-10-16T00:38:27;99743.06;;;13.81;77.44
41573;BME280;27286;47.870;19.006;2022-10-16T00:40:53;99742.91;;;13.84;77.11
41573;BME280;27286;47.870;19.006;2022-10-16T00:43:48;99755.75;;;13.89;77.19
41573;BME280;27286;47.870;19.006;2022-10-16T00:46:19;99761.81;;;13.90;76.82
41573;BME280;27286;47.870;19.006;2022-10-16T00:51:19;99770.75;;;13.85;76.70
41573;BME280;27286;47.870;19.006;2022-10-16T00:53:48;99765.69;;;13.82;76.20
41573;BME280;27286;47.870;19.006;2022-10-16T00:56:13;99776.69;;;13.89;75.62
41573;BME280;27286;47.870;19.006;2022-10-16T00:58:39;99768.13;;;13.85;75.04
41573;BME280;27286;47.870;19.006;2022-10-16T01:01:04;99775.69;;;13.92;75.08
41573;BME280;27286;47.870;19.006;2022-10-16T01:03:32;99768.75;;;13.91;75.22
41573;BME280;27286;47.870;19.006;2022-10-16T01:06:12;99770.44;;;13.92;74.56
41573;BME280;27286;47.870;19.006;2022-10-16T01:11:33;99769.59;;;13.91;73.43
41573;BME280;27286;47.870;19.006;2022-10-16T01:14:05;99767.91;;;13.90;73.86
41573;BME280;27286;47.870;19.006;2022-10-16T01:16:41;99769.84;;;13.87;74.05
41573;BME280;27286;47.870;19.006;2022-10-16T01:19:16;99764.06;;;13.80;74.83
41573;BME280;27286;47.870;19.006;2022-10-16T01:21:47;99761.66;;;13.75;75.32
41573;BME280;27286;47.870;19.006;2022-10-16T01:24:41;99769.66;;;13.72;75.27
41573;BME280;27286;47.870;19.006;2022-10-16T01:27:28;99777.50;;;13.72;75.19
41573;BME280;27286;47.870;19.006;2022-10-16T01:30:06;99774.13;;;13.70;74.75
41573;BME280;27286;47.870;19.006;2022-10-16T01:32:39;99785.66;;;13.66;74.91
41573;BME280;27286;47.870;19.006;2022-10-16T01:35:11;99774.50;;;13.63;75.25
41573;BME280;27286;47.870;19.006;2022-10-16T01:40:20;99785.16;;;13.58;75.62
41573;BME280;27286;47.870;19.006;2022-10-16T01:42:56;99784.56;;;13.53;75.58
41573;BME280;27286;47.870;19.006;2022-10-16T01:45:24;99787.25;;;13.51;75.63
41573;BME280;27286;47.870;19.006;2022-10-16T01:47:51;99789.09;;;13.49;75.74
41573;BME280;27286;47.870;19.006;2022-10-16T01:50:19;99795.25;;;13.48;75.75
41573;BME280;27286;47.870;19.006;2022-10-16T01:52:48;99800.47;;;13.48;75.31
41573;BME280;27286;47.870;19.006;2022-10-16T01:55:29;99800.53;;;13.47;75.02
41573;BME280;27286;47.870;19.006;2022-10-16T01:57:57;99800.47;;;13.48;74.59
41573;BME280;27286;47.870;19.006;2022-10-16T02:00:24;99801.31;;;13.49;74.23
41573;BME280;27286;47.870;19.006;2022-10-16T02:02:53;99809.16;;;13.49;74.31
41573;BME280;27286;47.870;19.006;2022-10-16T02:05:26;99805.00;;;13.45;74.37
41573;BME280;27286;47.870;19.006;2022-10-16T02:07:52;99802.31;;;13.46;74.14
41573;BME280;27286;47.870;19.006;2022-10-16T02:10:18;99807.47;;;13.48;73.97
41573;BME280;27286;47.870;19.006;2022-10-16T02:12:49;99794.59;;;13.43;73.99
41573;BME280;27286;47.870;19.006;2022-10-16T02:15:16;99798.97;;;13.43;73.76
41573;BME280;27286;47.870;19.006;2022-10-16T02:17:41;99807.66;;;13.43;74.06
41573;BME280;27286;47.870;19.006;2022-10-16T02:20:07;99804.19;;;13.43;74.22
41573;BME280;27286;47.870;19.006;2022-10-16T02:22:36;99813.63;;;13.47;74.38
41573;BME280;27286;47.870;19.006;2022-10-16T02:25:10;99805.78;;;13.47;74.42
41573;BME280;27286;47.870;19.006;2022-10-16T02:27:57;99812.91;;;13.43;74.76
41573;BME280;27286;47.870;19.006;2022-10-16T02:32:55;99804.66;;;13.34;74.71
41573;BME280;27286;47.870;19.006;2022-10-16T02:35:22;99797.09;;;13.28;74.82
41573;BME280;27286;47.870;19.006;2022-10-16T02:37:49;99806.75;;;13.25;75.10
41573;BME280;27286;47.870;19.006;2022-10-16T02:40:17;99810.50;;;13.20;74.85
41573;BME280;27286;47.870;19.006;2022-10-16T02:42:42;99812.59;;;13.12;75.05
41573;BME280;27286;47.870;19.006;2022-10-16T02:45:10;99809.25;;;13.08;74.96
41573;BME280;27286;47.870;19.006;2022-10-16T02:47:36;99811.38;;;13.00;75.18
41573;BME280;27286;47.870;19.006;2022-10-16T02:50:02;99812.53;;;12.94;75.10
41573;BME280;27286;47.870;19.006;2022-10-16T02:52:28;99816.31;;;12.87;74.81
41573;BME280;27286;47.870;19.006;2022-10-16T02:54:53;99818.28;;;12.82;74.41
41573;BME280;27286;47.870;19.006;2022-10-16T02:57:18;99829.00;;;12.76;74.48
41573;BME280;27286;47.870;19.006;2022-10-16T02:59:44;99831.75;;;12.73;74.68
41573;BME280;27286;47.870;19.006;2022-10-16T03:02:10;99836.41;;;12.67;75.13
41573;BME280;27286;47.870;19.006;2022-10-16T03:04:36;99830.38;;;12.64;75.33
41573;BME280;27286;47.870;19.006;2022-10-16T03:07:01;99820.16;;;12.60;75.48
41573;BME280;27286;47.870;19.006;2022-10-16T03:09:27;99829.69;;;12.61;75.49
41573;BME280;27286;47.870;19.006;2022-10-16T03:11:52;99840.91;;;12.63;75.37
41573;BME280;27286;47.870;19.006;2022-10-16T03:14:18;99835.75;;;12.61;75.31
41573;BME280;27286;47.870;19.006;2022-10-16T03:16:43;99835.09;;;12.56;75.44
41573;BME280;27286;47.870;19.006;2022-10-16T03:19:08;99824.00;;;12.51;75.29
41573;BME280;27286;47.870;19.006;2022-10-16T03:21:34;99830.97;;;12.51;75.08
41573;BME280;27286;47.870;19.006;2022-10-16T03:23:59;99833.00;;;12.44;74.72
41573;BME280;27286;47.870;19.006;2022-10-16T03:26:25;99828.81;;;12.40;74.93
41573;BME280;27286;47.870;19.006;2022-10-16T03:28:50;99838.41;;;12.40;74.70
41573;BME280;27286;47.870;19.006;2022-10-16T03:31:15;99842.84;;;12.38;74.79
41573;BME280;27286;47.870;19.006;2022-10-16T03:33:41;99839.59;;;12.32;74.99
41573;BME280;27286;47.870;19.006;2022-10-16T03:36:06;99846.72;;;12.29;74.99
41573;BME280;27286;47.870;19.006;2022-10-16T03:38:32;99850.47;;;12.22;74.81
41573;BME280;27286;47.870;19.006;2022-10-16T03:40:57;99853.28;;;12.17;75.13
41573;BME280;27286;47.870;19.006;2022-10-16T03:43:23;99851.78;;;12.12;75.26
41573;BME280;27286;47.870;19.006;2022-10-16T03:45:50;99849.22;;;12.10;75.11
41573;BME280;27286;47.870;19.006;2022-10-16T03:48:16;99845.22;;;12.01;75.16
41573;BME280;27286;47.870;19.006;2022-10-16T03:50:42;99854.09;;;11.97;75.05
41573;BME280;27286;47.870;19.006;2022-10-16T03:53:07;99853.38;;;11.94;74.90
41573;BME280;27286;47.870;19.006;2022-10-16T03:55:33;99847.53;;;11.87;75.14
41573;BME280;27286;47.870;19.006;2022-10-16T03:57:58;99853.91;;;11.80;75.16
41573;BME280;27286;47.870;19.006;2022-10-16T04:00:23;99862.75;;;11.76;74.97
41573;BME280;27286;47.870;19.006;2022-10-16T04:02:49;99865.56;;;11.70;75.58
41573;BME280;27286;47.870;19.006;2022-10-16T04:05:14;99876.19;;;11.65;75.40
41573;BME280;27286;47.870;19.006;2022-10-16T04:07:40;99869.47;;;11.60;74.92
41573;BME280;27286;47.870;19.006;2022-10-16T04:10:05;99875.69;;;11.56;74.56
41573;BME280;27286;47.870;19.006;2022-10-16T04:12:31;99875.81;;;11.53;74.76
41573;BME280;27286;47.870;19.006;2022-10-16T04:14:56;99889.69;;;11.53;74.71
41573;BME280;27286;47.870;19.006;2022-10-16T04:17:22;99892.34;;;11.52;75.17
41573;BME280;27286;47.870;19.006;2022-10-16T04:19:47;99885.50;;;11.49;75.15
41573;BME280;27286;47.870;19.006;2022-10-16T04:22:12;99885.56;;;11.48;75.38
41573;BME280;27286;47.870;19.006;2022-10-16T04:24:38;99887.44;;;11.44;75.42
41573;BME280;27286;47.870;19.006;2022-10-16T04:27:03;99894.41;;;11.43;75.28
41573;BME280;27286;47.870;19.006;2022-10-16T04:29:29;99892.03;;;11.37;74.93
41573;BME280;27286;47.870;19.006;2022-10-16T04:31:54;99900.63;;;11.39;74.82
41573;BME280;27286;47.870;19.006;2022-10-16T04:34:19;99894.75;;;11.34;74.60
41573;BME280;27286;47.870;19.006;2022-10-16T04:36:47;99891.47;;;11.29;74.26
41573;BME280;27286;47.870;19.006;2022-10-16T04:39:13;99890.44;;;11.33;74.48
41573;BME280;27286;47.870;19.006;2022-10-16T04:41:39;99890.25;;;11.38;75.12
41573;BME280;27286;47.870;19.006;2022-10-16T04:44:04;99881.91;;;11.30;75.03
41573;BME280;27286;47.870;19.006;2022-10-16T04:46:30;99883.78;;;11.26;75.50
41573;BME280;27286;47.870;19.006;2022-10-16T04:48:55;99888.16;;;11.24;75.47
41573;BME280;27286;47.870;19.006;2022-10-16T04:51:20;99894.19;;;11.26;75.68
41573;BME280;27286;47.870;19.006;2022-10-16T04:53:46;99890.03;;;11.21;75.92
41573;BME280;27286;47.870;19.006;2022-10-16T04:56:11;99897.78;;;11.22;75.38
41573;BME280;27286;47.870;19.006;2022-10-16T04:58:37;99892.94;;;11.13;75.90
41573;BME280;27286;47.870;19.006;2022-10-16T05:01:02;99900.88;;;11.10;75.63
41573;BME280;27286;47.870;19.006;2022-10-16T05:03:28;99897.66;;;11.02;75.23
41573;BME280;27286;47.870;19.006;2022-10-16T05:05:53;99902.88;;;10.52;77.20
41573;BME280;27286;47.870;19.006;2022-10-16T05:08:18;99905.75;;;10.16;79.51
41573;BME280;27286;47.870;19.006;2022-10-16T05:10:44;99917.53;;;10.00;80.79
41573;BME280;27286;47.870;19.006;2022-10-16T05:13:10;99912.13;;;10.06;80.95
41573;BME280;27286;47.870;19.006;2022-10-16T05:15:36;99908.41;;;10.15;80.53
41573;BME280;27286;47.870;19.006;2022-10-16T05:18:02;99923.84;;;10.19;79.94
41573;BME280;27286;47.870;19.006;2022-10-16T05:20:27;99913.19;;;10.01;80.80
41573;BME280;27286;47.870;19.006;2022-10-16T05:22:53;99913.22;;;9.99;81.17
41573;BME280;27286;47.870;19.006;2022-10-16T05:25:18;99926.50;;;10.18;80.78
41573;BME280;27286;47.870;19.006;2022-10-16T05:27:47;99916.81;;;10.23;80.46
41573;BME280;27286;47.870;19.006;2022-10-16T05:30:13;99931.88;;;10.13;79.18
41573;BME280;27286;47.870;19.006;2022-10-16T05:32:38;99921.34;;;9.88;80.02
41573;BME280;27286;47.870;19.006;2022-10-16T05:35:04;99933.09;;;10.02;80.80
41573;BME280;27286;47.870;19.006;2022-10-16T05:37:30;99920.66;;;10.11;80.67
41573;BME280;27286;47.870;19.006;2022-10-16T05:39:55;99924.63;;;10.24;80.29
41573;BME280;27286;47.870;19.006;2022-10-16T05:42:20;99933.66;;;10.39;80.12
41573;BME280;27286;47.870;19.006;2022-10-16T05:44:46;99937.53;;;10.28;80.60
41573;BME280;27286;47.870;19.006;2022-10-16T05:47:12;99935.53;;;10.06;81.66
41573;BME280;27286;47.870;19.006;2022-10-16T05:49:39;99938.78;;;10.14;81.98
41573;BME280;27286;47.870;19.006;2022-10-16T05:52:04;99943.63;;;10.27;81.46
41573;BME280;27286;47.870;19.006;2022-10-16T05:54:29;99942.41;;;10.37;81.31
41573;BME280;27286;47.870;19.006;2022-10-16T05:56:55;99938.78;;;10.42;80.68
41573;BME280;27286;47.870;19.006;2022-10-16T05:59:20;99949.72;;;10.26;81.42
41573;BME280;27286;47.870;19.006;2022-10-16T06:01:46;99942.16;;;10.16;82.23
41573;BME280;27286;47.870;19.006;2022-10-16T06:04:11;99955.63;;;10.31;82.49
41573;BME280;27286;47.870;19.006;2022-10-16T06:06:36;99949.25;;;10.39;82.14
41573;BME280;27286;47.870;19.006;2022-10-16T06:09:03;99965.97;;;10.60;81.60
41573;BME280;27286;47.870;19.006;2022-10-16T06:11:30;99949.34;;;10.64;81.44
41573;BME280;27286;47.870;19.006;2022-10-16T06:13:58;99970.66;;;10.75;82.44
41573;BME280;27286;47.870;19.006;2022-10-16T06:16:27;99960.75;;;10.60;82.88
41573;BME280;27286;47.870;19.006;2022-10-16T06:18:54;99977.66;;;10.73;82.99
41573;BME280;27286;47.870;19.006;2022-10-16T06:21:22;99975.56;;;10.84;82.88
41573;BME280;27286;47.870;19.006;2022-10-16T06:23:50;99985.28;;;11.04;82.36
41573;BME280;27286;47.870;19.006;2022-10-16T06:26:18;99988.16;;;11.22;81.89
41573;BME280;27286;47.870;19.006;2022-10-16T06:28:44;99983.44;;;11.33;81.02
41573;BME280;27286;47.870;19.006;2022-10-16T06:31:11;99977.84;;;11.43;79.69
41573;BME280;27286;47.870;19.006;2022-10-16T06:33:37;99992.81;;;11.62;78.92
41573;BME280;27286;47.870;19.006;2022-10-16T06:36:08;99994.03;;;11.75;78.04
41573;BME280;27286;47.870;19.006;2022-10-16T06:38:34;99989.63;;;11.79;77.30
41573;BME280;27286;47.870;19.006;2022-10-16T06:41:00;100001.13;;;11.96;76.91
41573;BME280;27286;47.870;19.006;2022-10-16T06:43:26;100000.88;;;12.02;75.98
41573;BME280;27286;47.870;19.006;2022-10-16T06:45:56;100009.94;;;12.16;75.35
41573;BME280;27286;47.870;19.006;2022-10-16T06:48:23;100018.25;;;12.25;74.73
41573;BME280;27286;47.870;19.006;2022-10-16T06:53:34;100019.31;;;12.43;73.70
41573;BME280;27286;47.870;19.006;2022-10-16T06:56:21;100038.00;;;12.54;73.25
41573;BME280;27286;47.870;19.006;2022-10-16T06:58:48;100028.22;;;12.59;73.13
41573;BME280;27286;47.870;19.006;2022-10-16T07:01:15;100039.03;;;12.72;72.79
41573;BME280;27286;47.870;19.006;2022-10-16T07:03:43;100047.38;;;12.82;72.34
41573;BME280;27286;47.870;19.006;2022-10-16T07:06:11;100036.72;;;12.86;71.87
41573;BME280;27286;47.870;19.006;2022-10-16T07:08:39;100041.66;;;12.94;70.97
41573;BME280;27286;47.870;19.006;2022-10-16T07:11:10;100060.25;;;13.07;69.84
41573;BME280;27286;47.870;19.006;2022-10-16T07:13:37;100058.25;;;13.13;69.07
41573;BME280;27286;47.870;19.006;2022-10-16T07:16:10;100061.28;;;13.24;69.03
41573;BME280;27286;47.870;19.006;2022-10-16T07:18:36;100055.09;;;13.27;68.66
41573;BME280;27286;47.870;19.006;2022-10-16T07:21:05;100066.91;;;13.36;68.14
41573;BME280;27286;47.870;19.006;2022-10-16T07:23:31;100063.31;;;13.38;67.54
41573;BME280;27286;47.870;19.006;2022-10-16T07:25:56;100062.16;;;13.45;67.23
41573;BME280;27286;47.870;19.006;2022-10-16T07:28:22;100067.75;;;13.57;66.79
41573;BME280;27286;47.870;19.006;2022-10-16T07:30:47;100067.38;;;13.66;66.35
41573;BME280;27286;47.870;19.006;2022-10-16T07:33:13;100063.69;;;13.70;66.11
41573;BME280;27286;47.870;19.006;2022-10-16T07:35:47;100065.00;;;13.80;65.66
41573;BME280;27286;47.870;19.006;2022-10-16T07:38:13;100076.88;;;13.87;64.79
41573;BME280;27286;47.870;19.006;2022-10-16T07:40:38;100069.66;;;13.92;64.76
41573;BME280;27286;47.870;19.006;2022-10-16T07:43:03;100069.34;;;14.00;63.72
41573;BME280;27286;47.870;19.006;2022-10-16T07:45:30;100067.34;;;14.05;63.28
41573;BME280;27286;47.870;19.006;2022-10-16T07:47:55;100064.34;;;14.14;63.06
41573;BME280;27286;47.870;19.006;2022-10-16T07:50:21;100072.13;;;14.15;63.07
41573;BME280;27286;47.870;19.006;2022-10-16T07:52:46;100067.28;;;14.25;62.92
41573;BME280;27286;47.870;19.006;2022-10-16T07:55:12;100071.34;;;14.32;62.93
41573;BME280;27286;47.870;19.006;2022-10-16T07:57:37;100069.25;;;14.39;62.97
41573;BME280;27286;47.870;19.006;2022-10-16T08:00:03;100075.66;;;14.52;62.64
41573;BME280;27286;47.870;19.006;2022-10-16T08:02:28;100079.59;;;14.61;62.48
41573;BME280;27286;47.870;19.006;2022-10-16T08:04:53;100089.50;;;14.73;61.58
41573;BME280;27286;47.870;19.006;2022-10-16T08:07:19;100087.47;;;14.80;61.10
41573;BME280;27286;47.870;19.006;2022-10-16T08:09:44;100076.59;;;14.87;61.02
41573;BME280;27286;47.870;19.006;2022-10-16T08:12:13;100084.97;;;14.95;60.47
41573;BME280;27286;47.870;19.006;2022-10-16T08:14:39;100079.75;;;14.94;60.48
41573;BME280;27286;47.870;19.006;2022-10-16T08:17:04;100080.75;;;14.91;60.66
41573;BME280;27286;47.870;19.006;2022-10-16T08:19:29;100088.88;;;15.04;60.38
41573;BME280;27286;47.870;19.006;2022-10-16T08:21:56;100097.94;;;15.16;59.76
41573;BME280;27286;47.870;19.006;2022-10-16T08:24:22;100094.38;;;15.17;58.49
41573;BME280;27286;47.870;19.006;2022-10-16T08:26:48;100095.75;;;15.24;58.20
41573;BME280;27286;47.870;19.006;2022-10-16T08:29:14;100103.19;;;15.33;58.26
41573;BME280;27286;47.870;19.006;2022-10-16T08:31:39;100117.44;;;15.45;58.90
41573;BME280;27286;47.870;19.006;2022-10-16T08:34:04;100104.19;;;15.48;58.74
41573;BME280;27286;47.870;19.006;2022-10-16T08:36:30;100109.88;;;15.56;58.15
41573;BME280;27286;47.870;19.006;2022-10-16T08:38:55;100117.34;;;15.65;58.10
41573;BME280;27286;47.870;19.006;2022-10-16T08:42:29;100103.72;;;15.74;57.71
41573;BME280;27286;47.870;19.006;2022-10-16T08:50:17;100106.94;;;16.12;57.19
41573;BME280;27286;47.870;19.006;2022-10-16T08:52:44;100104.59;;;16.23;57.06
41573;BME280;27286;47.870;19.006;2022-10-16T08:55:43;100110.22;;;16.33;56.71
41573;BME280;27286;47.870;19.006;2022-10-16T08:58:14;100107.34;;;16.38;56.35
41573;BME280;27286;47.870;19.006;2022-10-16T09:00:41;100103.28;;;16.48;55.60
41573;BME280;27286;47.870;19.006;2022-10-16T09:09:02;100104.63;;;16.55;55.16
41573;BME280;27286;47.870;19.006;2022-10-16T09:16:50;100105.84;;;16.97;54.75
41573;BME280;27286;47.870;19.006;2022-10-16T09:21:54;100117.91;;;17.31;53.86
41573;BME280;27286;47.870;19.006;2022-10-16T09:24:24;100112.97;;;17.55;53.65
41573;BME280;27286;47.870;19.006;2022-10-16T09:26:50;100122.56;;;17.86;52.94
41573;BME280;27286;47.870;19.006;2022-10-16T09:29:18;100126.53;;;18.07;52.45
41573;BME280;27286;47.870;19.006;2022-10-16T09:31:50;100124.19;;;18.17;51.41
41573;BME280;27286;47.870;19.006;2022-10-16T09:34:32;100136.97;;;18.23;51.21
41573;BME280;27286;47.870;19.006;2022-10-16T09:37:01;100138.66;;;18.24;51.19
41573;BME280;27286;47.870;19.006;2022-10-16T09:39:28;100137.63;;;18.26;51.28
41573;BME280;27286;47.870;19.006;2022-10-16T09:41:55;100141.28;;;18.24;51.35
41573;BME280;27286;47.870;19.006;2022-10-16T09:44:22;100143.53;;;18.30;51.15
41573;BME280;27286;47.870;19.006;2022-10-16T09:47:04;100125.88;;;18.32;51.30
41573;BME280;27286;47.870;19.006;2022-10-16T09:49:30;100133.19;;;18.41;50.95
41573;BME280;27286;47.870;19.006;2022-10-16T09:52:13;100133.94;;;18.43;50.53
41573;BME280;27286;47.870;19.006;2022-10-16T09:54:50;100126.88;;;18.44;50.98
41573;BME280;27286;47.870;19.006;2022-10-16T09:57:15;100128.66;;;18.43;50.65
41573;BME280;27286;47.870;19.006;2022-10-16T09:59:58;100130.34;;;18.44;50.24
41573;BME280;27286;47.870;19.006;2022-10-16T10:02:37;100126.97;;;18.42;50.57
41573;BME280;27286;47.870;19.006;2022-10-16T10:05:17;100132.25;;;18.42;50.04
41573;BME280;27286;47.870;19.006;2022-10-16T10:07:44;100133.38;;;18.38;50.04
41573;BME280;27286;47.870;19.006;2022-10-16T10:10:23;100129.34;;;18.32;50.03
41573;BME280;27286;47.870;19.006;2022-10-16T10:12:49;100129.63;;;18.28;50.24
41573;BME280;27286;47.870;19.006;2022-10-16T10:15:15;100131.31;;;18.29;50.35
41573;BME280;27286;47.870;19.006;2022-10-16T10:17:52;100127.81;;;18.43;49.93
41573;BME280;27286;47.870;19.006;2022-10-16T10:20:30;100131.09;;;18.60;50.15
41573;BME280;27286;47.870;19.006;2022-10-16T10:22:58;100137.75;;;18.80;50.05
41573;BME280;27286;47.870;19.006;2022-10-16T10:25:39;100130.00;;;18.91;49.88
41573;BME280;27286;47.870;19.006;2022-10-16T10:36:15;100124.94;;;19.15;49.01
41573;BME280;27286;47.870;19.006;2022-10-16T10:46:43;100134.19;;;19.48;48.43
41573;BME280;27286;47.870;19.006;2022-10-16T10:52:02;100139.13;;;19.67;47.29
41573;BME280;27286;47.870;19.006;2022-10-16T10:54:40;100124.25;;;19.66;47.19
41573;BME280;27286;47.870;19.006;2022-10-16T11:07:52;100102.38;;;20.02;45.65
41573;BME280;27286;47.870;19.006;2022-10-16T11:10:51;100098.03;;;20.01;45.64
41573;BME280;27286;47.870;19.006;2022-10-16T11:16:23;100100.47;;;20.66;45.65
41573;BME280;27286;47.870;19.006;2022-10-16T11:21:42;100097.63;;;20.56;44.09
41573;BME280;27286;47.870;19.006;2022-10-16T11:24:16;100099.28;;;20.70;44.08
41573;BME280;27286;47.870;19.006;2022-10-16T11:26:46;100096.09;;;21.01;43.42
41573;BME280;27286;47.870;19.006;2022-10-16T11:29:26;100101.41;;;21.72;42.56
41573;BME280;27286;47.870;19.006;2022-10-16T11:31:57;100098.28;;;22.34;41.21
41573;BME280;27286;47.870;19.006;2022-10-16T11:34:33;100095.66;;;22.11;41.27
41573;BME280;27286;47.870;19.006;2022-10-16T11:37:11;100108.63;;;21.81;42.16
41573;BME280;27286;47.870;19.006;2022-10-16T11:39:39;100098.28;;;22.00;41.94
41573;BME280;27286;47.870;19.006;2022-10-16T11:42:13;100077.88;;;24.25;37.91
41573;BME280;27286;47.870;19.006;2022-10-16T11:55:36;100079.59;;;23.01;40.04
41573;BME280;27286;47.870;19.006;2022-10-16T11:58:09;100079.44;;;22.70;40.24
41573;BME280;27286;47.870;19.006;2022-10-16T12:00:46;100077.19;;;22.43;41.15
41573;BME280;27286;47.870;19.006;2022-10-16T12:03:46;100084.81;;;22.26;41.79
41573;BME280;27286;47.870;19.006;2022-10-16T12:08:45;100080.13;;;22.84;40.89
41573;BME280;27286;47.870;19.006;2022-10-16T12:11:31;100083.59;;;23.27;40.25
41573;BME280;27286;47.870;19.006;2022-10-16T12:14:18;100074.59;;;23.81;38.64
41573;BME280;27286;47.870;19.006;2022-10-16T12:16:58;100063.66;;;24.45;37.37
41573;BME280;27286;47.870;19.006;2022-10-16T12:19:26;100075.56;;;25.20;36.10
41573;BME280;27286;47.870;19.006;2022-10-16T12:21:56;100066.78;;;26.13;35.02
41573;BME280;27286;47.870;19.006;2022-10-16T12:24:38;100071.91;;;27.15;32.52
41573;BME280;27286;47.870;19.006;2022-10-16T12:27:24;100059.63;;;28.26;30.16
41573;BME280;27286;47.870;19.006;2022-10-16T12:30:03;100063.50;;;29.55;28.87
41573;BME280;27286;47.870;19.006;2022-10-16T12:32:37;100056.28;;;30.58;26.94
41573;BME280;27286;47.870;19.006;2022-10-16T12:35:06;100065.34;;;31.34;25.88
41573;BME280;27286;47.870;19.006;2022-10-16T12:37:41;100062.50;;;30.59;25.68
41573;BME280;27286;47.870;19.006;2022-10-16T12:40:36;100059.00;;;29.31;28.35
41573;BME280;27286;47.870;19.006;2022-10-16T12:43:24;100075.13;;;27.88;30.30
41573;BME280;27286;47.870;19.006;2022-10-16T12:46:03;100078.03;;;27.69;29.78
41573;BME280;27286;47.870;19.006;2022-10-16T12:48:28;100069.03;;;29.13;28.34
41573;BME280;27286;47.870;19.006;2022-10-16T12:50:55;100069.81;;;28.81;28.42
41573;BME280;27286;47.870;19.006;2022-10-16T12:53:25;100077.72;;;29.80;27.47
41573;BME280;27286;47.870;19.006;2022-10-16T12:56:11;100079.53;;;27.97;29.74
41573;BME280;27286;47.870;19.006;2022-10-16T12:59:03;100076.16;;;28.71;28.73
41573;BME280;27286;47.870;19.006;2022-10-16T13:04:33;100086.78;;;28.89;28.37
41573;BME280;27286;47.870;19.006;2022-10-16T13:10:14;100093.13;;;28.38;28.46
41573;BME280;27286;47.870;19.006;2022-10-16T13:18:16;100086.84;;;27.43;30.41
41573;BME280;27286;47.870;19.006;2022-10-16T13:24:02;100085.22;;;27.68;29.85
41573;BME280;27286;47.870;19.006;2022-10-16T13:26:57;100087.63;;;28.05;29.62
41573;BME280;27286;47.870;19.006;2022-10-16T13:29:30;100073.13;;;28.58;28.63
41573;BME280;27286;47.870;19.006;2022-10-16T13:31:55;100081.13;;;29.09;27.40
41573;BME280;27286;47.870;19.006;2022-10-16T13:34:22;100081.78;;;29.76;26.48
41573;BME280;27286;47.870;19.006;2022-10-16T13:36:52;100075.59;;;30.53;25.66
41573;BME280;27286;47.870;19.006;2022-10-16T13:39:24;100078.00;;;31.02;24.66
41573;BME280;27286;47.870;19.006;2022-10-16T13:42:05;100082.00;;;31.52;23.94
41573;BME280;27286;47.870;19.006;2022-10-16T13:44:40;100078.63;;;32.17;22.87
41573;BME280;27286;47.870;19.006;2022-10-16T13:47:28;100071.00;;;32.72;22.24
41573;BME280;27286;47.870;19.006;2022-10-16T13:50:04;100070.28;;;33.20;21.95
41573;BME280;27286;47.870;19.006;2022-10-16T13:52:31;100076.38;;;33.29;22.03
41573;BME280;27286;47.870;19.006;2022-10-16T13:54:57;100081.88;;;33.42;21.62
41573;BME280;27286;47.870;19.006;2022-10-16T13:57:24;100081.25;;;33.40;21.52
41573;BME280;27286;47.870;19.006;2022-10-16T13:59:50;100082.56;;;33.02;21.91
41573;BME280;27286;47.870;19.006;2022-10-16T14:02:33;100084.53;;;32.57;22.38
41573;BME280;27286;47.870;19.006;2022-10-16T14:05:00;100095.16;;;32.14;23.10
41573;BME280;27286;47.870;19.006;2022-10-16T14:07:29;100092.56;;;31.77;23.60
41573;BME280;27286;47.870;19.006;2022-10-16T14:10:01;100085.66;;;31.13;24.03
41573;BME280;27286;47.870;19.006;2022-10-16T14:12:27;100091.06;;;30.51;24.58
41573;BME280;27286;47.870;19.006;2022-10-16T14:14:53;100088.59;;;29.94;25.82
41573;BME280;27286;47.870;19.006;2022-10-16T14:17:22;100090.00;;;29.33;26.65
41573;BME280;27286;47.870;19.006;2022-10-16T14:19:51;100085.25;;;28.87;27.06
41573;BME280;27286;47.870;19.006;2022-10-16T14:22:33;100091.16;;;28.48;27.70
41573;BME280;27286;47.870;19.006;2022-10-16T14:25:00;100098.13;;;28.33;28.06
41573;BME280;27286;47.870;19.006;2022-10-16T14:27:34;100103.91;;;28.20;28.08
41573;BME280;27286;47.870;19.006;2022-10-16T14:30:17;100099.53;;;28.19;28.09
41573;BME280;27286;47.870;19.006;2022-10-16T14:32:59;100106.00;;;28.26;27.96
41573;BME280;27286;47.870;19.006;2022-10-16T14:35:37;100096.50;;;28.40;28.05